Time;durP1;ratioP1;P1;durP2;ratioP2;P2;SDS_P1;SDS_P2;PMS_P1;PMS_P2;Temp;Humidity;BMP_temperature;BMP_pressure;BME280_temperature;BME280_humidity;BME280_pressure;Samples;Min_cycle;Max_cycle;Signal;HPM_P1;HPM_P2
2023/08/29 00:01:21;;;;;;;5.93;5.30;;;18.40;1.00;;;;;;5041414;28;20577;-70
2023/08/29 00:03:49;;;;;;;6.50;6.00;;;18.40;1.00;;;;;;5041838;28;20464;-72
2023/08/29 00:06:15;;;;;;;6.10;5.43;;;18.40;1.00;;;;;;5041381;28;20475;-71
2023/08/29 00:08:42;;;;;;;8.73;6.43;;;18.30;1.00;;;;;;5047029;28;20542;-70
2023/08/29 00:11:09;;;;;;;9.77;5.67;;;18.10;1.00;;;;;;5041119;28;21997;-71
2023/08/29 00:13:36;;;;;;;6.30;5.70;;;18.10;1.00;;;;;;5041634;28;20546;-70
2023/08/29 00:16:05;;;;;;;7.10;6.17;;;18.00;1.00;;;;;;5043515;28;20939;-70
2023/08/29 00:18:32;;;;;;;5.37;4.97;;;18.10;1.00;;;;;;5043088;28;20532;-71
2023/08/29 00:20:59;;;;;;;6.53;6.00;;;18.00;1.00;;;;;;5044066;28;20467;-70
2023/08/29 00:23:26;;;;;;;6.47;5.80;;;18.10;1.00;;;;;;5042536;28;20798;-69
2023/08/29 00:25:53;;;;;;;8.20;6.70;;;18.10;1.00;;;;;;5042286;28;20886;-70
2023/08/29 00:28:20;;;;;;;5.50;5.10;;;18.10;1.00;;;;;;5043407;28;20454;-73
2023/08/29 00:30:47;;;;;;;6.30;5.70;;;18.10;1.00;;;;;;5040473;28;20556;-71
2023/08/29 00:33:17;;;;;;;6.37;5.73;;;18.10;1.00;;;;;;5041263;28;20446;-72
2023/08/29 00:35:44;;;;;;;6.90;6.00;;;18.20;1.00;;;;;;5039313;28;20469;-71
2023/08/29 00:38:12;;;;;;;6.73;6.13;;;18.20;1.00;;;;;;5041933;28;20908;-72
2023/08/29 00:40:39;;;;;;;6.23;5.63;;;18.20;1.00;;;;;;5043083;28;20477;-70
2023/08/29 00:43:06;;;;;;;5.97;5.43;;;18.20;1.00;;;;;;5042346;28;20545;-72
2023/08/29 00:45:36;;;;;;;6.13;5.73;;;18.20;1.00;;;;;;5043110;28;20516;-71
2023/08/29 00:48:05;;;;;;;6.27;5.77;;;18.30;1.00;;;;;;5041677;28;20472;-71
2023/08/29 00:50:34;;;;;;;6.50;5.90;;;18.30;1.00;;;;;;5041550;28;20462;-71
2023/08/29 00:53:04;;;;;;;6.57;5.97;;;18.30;1.00;;;;;;5043653;28;20461;-70
2023/08/29 00:55:33;;;;;;;6.57;6.03;;;18.30;1.00;;;;;;5044394;28;20464;-71
2023/08/29 00:58:01;;;;;;;5.90;5.30;;;18.30;1.00;;;;;;5039835;28;20483;-70
2023/08/29 01:00:30;;;;;;;5.93;5.43;;;18.20;1.00;;;;;;5038612;28;20435;-72
2023/08/29 01:02:57;;;;;;;7.70;6.40;;;18.30;1.00;;;;;;5054115;22;20965;-76
2023/08/29 01:05:24;;;;;;;7.13;6.27;;;18.30;1.00;;;;;;5042285;28;20582;-75
2023/08/29 01:07:58;;;;;;;7.00;6.40;;;18.30;1.00;;;;;;5038517;28;20588;-75
2023/08/29 01:10:35;;;;;;;6.40;5.80;;;18.20;1.00;;;;;;5036957;28;20486;-75
2023/08/29 01:13:10;;;;;;;7.27;6.63;;;18.20;1.00;;;;;;5036978;28;20956;-76
2023/08/29 01:15:38;;;;;;;7.43;6.30;;;18.20;1.00;;;;;;5039278;28;20996;-77
2023/08/29 01:18:08;;;;;;;6.70;6.10;;;18.20;1.00;;;;;;5035282;28;20547;-76
2023/08/29 01:20:37;;;;;;;6.27;5.67;;;18.20;1.00;;;;;;5037593;28;20489;-79
2023/08/29 01:23:11;;;;;;;6.53;5.87;;;18.20;1.00;;;;;;5038715;28;20980;-76
2023/08/29 01:25:46;;;;;;;6.20;5.60;;;18.30;1.00;;;;;;5040407;28;20525;-77
2023/08/29 01:28:15;;;;;;;5.50;5.00;;;18.20;1.00;;;;;;5038351;28;20508;-77
2023/08/29 01:30:43;;;;;;;4.73;4.27;;;18.20;1.00;;;;;;5042679;28;20952;-77
2023/08/29 01:33:11;;;;;;;5.10;4.40;;;18.30;1.00;;;;;;5042101;28;20969;-76
2023/08/29 01:35:45;;;;;;;5.43;4.93;;;18.30;1.00;;;;;;5041143;28;20574;-77
2023/08/29 01:38:12;;;;;;;4.33;4.03;;;18.30;1.00;;;;;;5043486;28;20458;-75
2023/08/29 01:40:39;;;;;;;4.03;3.73;;;18.30;1.00;;;;;;5041125;28;20475;-76
2023/08/29 01:43:06;;;;;;;4.17;3.87;;;18.30;1.00;;;;;;5042622;28;20550;-77
2023/08/29 01:45:34;;;;;;;4.50;3.90;;;18.30;1.00;;;;;;5040931;28;20605;-77
2023/08/29 01:48:01;;;;;;;5.37;4.10;;;18.30;1.00;;;;;;5038798;28;20461;-77
2023/08/29 01:50:30;;;;;;;4.40;4.07;;;18.30;1.00;;;;;;5044226;28;20462;-77
2023/08/29 01:52:58;;;;;;;4.10;3.80;;;18.30;1.00;;;;;;5039577;28;20472;-75
2023/08/29 01:55:26;;;;;;;4.97;3.73;;;18.20;1.00;;;;;;5035899;28;20520;-78
2023/08/29 01:57:54;;;;;;;4.73;4.33;;;18.30;1.00;;;;;;5042069;28;20457;-77
2023/08/29 02:00:22;;;;;;;3.97;3.67;;;18.20;1.00;;;;;;5038941;28;20992;-76
2023/08/29 02:02:51;;;;;;;4.67;4.17;;;18.20;1.00;;;;;;5041915;28;20544;-77
2023/08/29 02:05:18;;;;;;;4.37;3.97;;;18.20;1.00;;;;;;5040686;28;20885;-77
2023/08/29 02:07:45;;;;;;;4.73;3.80;;;18.20;1.00;;;;;;5038627;28;20471;-76
2023/08/29 02:10:12;;;;;;;6.07;4.70;;;18.20;1.00;;;;;;5043192;28;20573;-76
2023/08/29 02:12:39;;;;;;;6.60;4.77;;;18.20;1.00;;;;;;5045125;28;20516;-77
2023/08/29 02:15:07;;;;;;;3.77;3.47;;;18.20;1.00;;;;;;5040866;28;20473;-76
2023/08/29 02:17:34;;;;;;;5.70;5.27;;;18.10;1.00;;;;;;5042183;28;20558;-75
2023/08/29 02:20:05;;;;;;;5.07;4.60;;;18.00;1.00;;;;;;5040955;28;21377;-77
2023/08/29 02:22:33;;;;;;;4.90;4.40;;;18.00;1.00;;;;;;5040349;28;20804;-77
2023/08/29 02:25:04;;;;;;;5.10;3.50;;;18.00;1.00;;;;;;5039339;28;20508;-77
2023/08/29 02:27:32;;;;;;;4.93;4.50;;;18.00;1.00;;;;;;5043696;28;20884;-75
2023/08/29 02:29:59;;;;;;;5.10;4.50;;;17.90;1.00;;;;;;5040331;28;20507;-77
2023/08/29 02:32:26;;;;;;;4.83;3.97;;;17.90;1.00;;;;;;5041219;28;20474;-78
2023/08/29 02:34:55;;;;;;;4.27;3.90;;;17.90;1.00;;;;;;5037214;28;20505;-76
2023/08/29 02:37:27;;;;;;;4.97;4.47;;;17.90;1.00;;;;;;5042067;28;20453;-77
2023/08/29 02:39:54;;;;;;;4.93;4.43;;;17.90;1.00;;;;;;5038449;28;20504;-77
2023/08/29 02:42:24;;;;;;;4.13;3.83;;;17.90;1.00;;;;;;5041445;28;20635;-78
2023/08/29 02:44:51;;;;;;;8.20;6.33;;;17.90;1.00;;;;;;5040316;28;20603;-77
2023/08/29 02:47:18;;;;;;;4.33;4.03;;;18.00;1.00;;;;;;5038951;28;20481;-77
2023/08/29 02:49:45;;;;;;;5.13;4.30;;;17.90;1.00;;;;;;5038002;28;20464;-76
2023/08/29 02:52:20;;;;;;;9.30;4.00;;;17.90;1.00;;;;;;5040267;28;20637;-77
2023/08/29 02:54:48;;;;;;;4.57;4.17;;;17.90;1.00;;;;;;5038510;28;21103;-77
2023/08/29 02:57:15;;;;;;;3.80;3.50;;;17.90;1.00;;;;;;5038614;28;21169;-77
2023/08/29 02:59:42;;;;;;;3.70;3.10;;;17.90;1.00;;;;;;5040629;28;21315;-75
2023/08/29 03:02:09;;;;;;;4.40;3.90;;;17.90;1.00;;;;;;5035392;28;20792;-77
2023/08/29 03:04:36;;;;;;;5.30;3.90;;;17.80;1.00;;;;;;5040783;28;20908;-76
2023/08/29 03:07:04;;;;;;;4.00;3.63;;;17.80;1.00;;;;;;5041924;28;20520;-77
2023/08/29 03:09:31;;;;;;;4.17;3.77;;;17.90;1.00;;;;;;5038386;28;20555;-77
2023/08/29 03:12:00;;;;;;;3.80;3.50;;;17.90;1.00;;;;;;5043712;28;20512;-77
2023/08/29 03:14:27;;;;;;;3.50;3.20;;;17.80;1.00;;;;;;5038548;28;20966;-75
2023/08/29 03:16:57;;;;;;;3.63;3.40;;;17.80;1.00;;;;;;5036554;28;20540;-76
2023/08/29 03:19:25;;;;;;;5.53;3.33;;;17.80;1.00;;;;;;5041571;28;20550;-77
2023/08/29 03:21:52;;;;;;;4.07;3.23;;;17.80;1.00;;;;;;5037583;28;20458;-76
2023/08/29 03:24:20;;;;;;;3.43;3.23;;;17.70;1.00;;;;;;5040137;28;20519;-76
2023/08/29 03:26:47;;;;;;;4.10;3.20;;;17.70;1.00;;;;;;5042848;28;21026;-75
2023/08/29 03:29:15;;;;;;;5.83;3.23;;;17.70;1.00;;;;;;5036021;28;20503;-77
2023/08/29 03:31:44;;;;;;;4.27;3.27;;;17.60;1.00;;;;;;5042322;28;20448;-76
2023/08/29 03:34:11;;;;;;;5.10;4.13;;;17.60;1.00;;;;;;5039073;28;20460;-76
2023/08/29 03:36:39;;;;;;;4.80;4.30;;;17.50;1.00;;;;;;5047010;28;20538;-82
2023/08/29 03:39:06;;;;;;;4.37;3.27;;;17.50;1.00;;;;;;5042931;28;20480;-83
2023/08/29 03:41:33;;;;;;;3.90;3.40;;;17.60;1.00;;;;;;5044793;28;20464;-80
2023/08/29 03:44:00;;;;;;;5.13;4.60;;;17.60;1.00;;;;;;5041131;28;20505;-80
2023/08/29 03:46:28;;;;;;;8.30;4.40;;;17.50;1.00;;;;;;5042656;28;21026;-82
2023/08/29 03:48:55;;;;;;;4.63;3.43;;;17.50;1.00;;;;;;5041356;28;20622;-84
2023/08/29 03:51:22;;;;;;;4.13;3.27;;;17.50;1.00;;;;;;5044993;28;20483;-83
2023/08/29 03:53:49;;;;;;;4.33;3.63;;;17.50;1.00;;;;;;5041832;28;21025;-82
2023/08/29 03:56:18;;;;;;;3.90;3.37;;;17.50;1.00;;;;;;5044430;28;20952;-84
2023/08/29 03:58:45;;;;;;;5.43;4.00;;;17.40;1.00;;;;;;5043191;28;20930;-84
2023/08/29 04:01:12;;;;;;;3.07;2.80;;;17.40;1.00;;;;;;5044352;28;20448;-84
2023/08/29 04:03:44;;;;;;;3.70;3.40;;;17.50;1.00;;;;;;5040815;28;20555;-81
2023/08/29 04:06:11;;;;;;;4.43;3.20;;;17.50;1.00;;;;;;5038275;28;20461;-77
2023/08/29 04:08:38;;;;;;;4.27;3.10;;;17.40;1.00;;;;;;5045500;28;20425;-85
2023/08/29 04:11:06;;;;;;;4.70;2.97;;;17.40;1.00;;;;;;5039930;28;20527;-85
2023/08/29 04:13:34;;;;;;;5.53;3.30;;;17.40;1.00;;;;;;5046032;28;20435;-80
2023/08/29 04:16:04;;;;;;;5.20;3.70;;;17.40;1.00;;;;;;5044736;28;20996;-80
2023/08/29 04:18:32;;;;;;;4.80;3.67;;;17.40;1.00;;;;;;5044622;28;20538;-81
2023/08/29 04:21:03;;;;;;;3.60;3.30;;;17.30;1.00;;;;;;5040378;28;22815;-76
2023/08/29 04:23:30;;;;;;;4.70;3.27;;;17.40;1.00;;;;;;5039330;28;20556;-83
2023/08/29 04:26:03;;;;;;;3.57;3.27;;;17.30;1.00;;;;;;5040896;28;20458;-80
2023/08/29 04:28:31;;;;;;;3.77;3.37;;;17.30;1.00;;;;;;5041043;28;20617;-81
2023/08/29 04:31:08;;;;;;;6.00;4.07;;;17.30;1.00;;;;;;5039914;28;21047;-84
2023/08/29 04:33:35;;;;;;;8.13;4.90;;;17.30;1.00;;;;;;5037942;28;20575;-82
2023/08/29 04:36:07;;;;;;;5.20;4.20;;;17.20;1.00;;;;;;5043159;28;20465;-83
2023/08/29 04:38:35;;;;;;;4.20;3.07;;;17.30;1.00;;;;;;5041956;28;20533;-78
2023/08/29 04:41:03;;;;;;;5.60;3.60;;;17.30;1.00;;;;;;5038640;28;20515;-78
2023/08/29 04:43:30;;;;;;;3.47;2.93;;;17.30;1.00;;;;;;5041440;28;20480;-79
2023/08/29 04:45:57;;;;;;;4.60;3.40;;;17.40;1.00;;;;;;5039728;28;20533;-73
2023/08/29 04:48:24;;;;;;;5.80;3.83;;;17.40;1.00;;;;;;5039170;28;20519;-72
2023/08/29 04:50:51;;;;;;;8.27;4.80;;;17.40;1.00;;;;;;5039063;28;20484;-72
2023/08/29 04:53:21;;;;;;;5.10;4.00;;;17.40;1.00;;;;;;5036878;28;21112;-73
2023/08/29 04:55:48;;;;;;;4.67;4.27;;;17.40;1.00;;;;;;5036013;28;20998;-74
2023/08/29 04:58:15;;;;;;;5.90;4.47;;;17.50;1.00;;;;;;5039835;28;20473;-73
2023/08/29 05:00:42;;;;;;;5.00;4.60;;;17.40;1.00;;;;;;5034542;28;20468;-72
2023/08/29 05:03:09;;;;;;;4.57;4.17;;;17.40;1.00;;;;;;5040182;28;20562;-71
2023/08/29 05:05:37;;;;;;;6.20;3.50;;;17.40;1.00;;;;;;5038989;28;20484;-73
2023/08/29 05:08:05;;;;;;;4.60;3.37;;;17.50;1.00;;;;;;5038020;28;20468;-73
2023/08/29 05:10:33;;;;;;;4.83;3.63;;;17.60;1.00;;;;;;5040184;28;20544;-74
2023/08/29 05:13:01;;;;;;;6.70;3.70;;;17.60;1.00;;;;;;5043021;28;20472;-73
2023/08/29 05:15:27;;;;;;;6.13;4.37;;;17.60;1.00;;;;;;5042019;28;20463;-73
2023/08/29 05:17:54;;;;;;;5.20;4.80;;;17.70;1.00;;;;;;5046996;28;20509;-72
2023/08/29 05:20:22;;;;;;;4.60;4.30;;;17.70;1.00;;;;;;5044303;28;20565;-73
2023/08/29 05:22:49;;;;;;;5.43;4.00;;;17.70;1.00;;;;;;5042680;28;20489;-73
2023/08/29 05:25:16;;;;;;;5.10;4.70;;;17.70;1.00;;;;;;5043056;28;20459;-73
2023/08/29 05:27:44;;;;;;;5.87;4.27;;;17.70;1.00;;;;;;5037404;28;20995;-74
2023/08/29 05:30:13;;;;;;;5.07;4.30;;;17.70;1.00;;;;;;5039913;28;20453;-73
2023/08/29 05:32:40;;;;;;;6.20;4.40;;;17.80;1.00;;;;;;5040734;28;20600;-74
2023/08/29 05:35:08;;;;;;;6.23;5.77;;;17.70;1.00;;;;;;5038140;28;20967;-73
2023/08/29 05:37:35;;;;;;;7.53;5.30;;;17.70;1.00;;;;;;5037135;28;20919;-73
2023/08/29 05:40:01;;;;;;;5.37;4.50;;;17.80;1.00;;;;;;5042874;28;20473;-72
2023/08/29 05:42:28;;;;;;;6.10;5.50;;;17.80;1.00;;;;;;5037363;28;20473;-74
2023/08/29 05:44:57;;;;;;;5.13;4.63;;;17.80;1.00;;;;;;5042969;28;20468;-74
2023/08/29 05:47:24;;;;;;;7.07;6.40;;;17.70;1.00;;;;;;5039943;28;20481;-77
2023/08/29 05:49:52;;;;;;;6.07;5.47;;;17.70;1.00;;;;;;5045278;28;20881;-79
2023/08/29 05:52:19;;;;;;;6.70;6.00;;;17.60;1.00;;;;;;5048210;28;20988;-78
2023/08/29 05:54:46;;;;;;;5.73;5.13;;;17.50;1.00;;;;;;5045174;28;20467;-79
2023/08/29 05:57:13;;;;;;;7.30;5.30;;;17.50;1.00;;;;;;5044710;28;20506;-77
2023/08/29 05:59:41;;;;;;;6.17;5.57;;;17.40;1.00;;;;;;5045923;28;20492;-78
2023/08/29 06:02:10;;;;;;;6.80;5.60;;;17.40;1.00;;;;;;5038886;28;20483;-77
2023/08/29 06:04:37;;;;;;;7.87;5.97;;;17.40;1.00;;;;;;5041739;28;20836;-78
2023/08/29 06:07:05;;;;;;;5.83;5.13;;;17.30;1.00;;;;;;5037752;28;20481;-74
2023/08/29 06:09:33;;;;;;;10.40;7.00;;;17.20;1.00;;;;;;5037776;28;20515;-71
2023/08/29 06:12:00;;;;;;;6.53;5.93;;;17.20;1.00;;;;;;5041768;28;20888;-73
2023/08/29 06:14:27;;;;;;;5.93;5.30;;;17.20;1.00;;;;;;5039561;28;21027;-73
2023/08/29 06:16:54;;;;;;;6.97;6.27;;;17.20;1.00;;;;;;5040728;28;21027;-74
2023/08/29 06:19:22;;;;;;;6.43;5.93;;;17.30;1.00;;;;;;5040299;28;20552;-73
2023/08/29 06:21:49;;;;;;;8.73;6.07;;;17.30;1.00;;;;;;5042038;28;21248;-73
2023/08/29 06:24:17;;;;;;;6.63;5.97;;;17.40;1.00;;;;;;5042191;28;20456;-73
2023/08/29 06:26:44;;;;;;;8.63;5.37;;;17.50;1.00;;;;;;5040824;28;21182;-75
2023/08/29 06:29:11;;;;;;;7.00;6.40;;;17.70;1.00;;;;;;5041796;28;20461;-72
2023/08/29 06:31:38;;;;;;;6.70;6.13;;;17.80;1.00;;;;;;5036811;28;20473;-73
2023/08/29 06:34:06;;;;;;;6.90;6.30;;;17.90;1.00;;;;;;5040257;28;20976;-74
2023/08/29 06:36:34;;;;;;;6.40;5.80;;;17.90;1.00;;;;;;5043012;28;21042;-74
2023/08/29 06:39:01;;;;;;;7.70;7.00;;;17.80;1.00;;;;;;5038836;28;20479;-74
2023/08/29 06:41:28;;;;;;;6.83;6.27;;;17.90;1.00;;;;;;5034656;28;20477;-72
2023/08/29 06:43:55;;;;;;;6.83;6.03;;;18.00;1.00;;;;;;5037268;28;20959;-69
2023/08/29 06:46:23;;;;;;;6.23;5.63;;;18.00;1.00;;;;;;5040783;28;20474;-71
2023/08/29 06:48:50;;;;;;;6.83;6.23;;;18.10;1.00;;;;;;5038777;28;20532;-70
2023/08/29 06:51:17;;;;;;;7.27;6.57;;;18.10;1.00;;;;;;5041232;28;20469;-72
2023/08/29 06:53:45;;;;;;;8.23;7.43;;;18.20;1.00;;;;;;5044257;28;20561;-74
2023/08/29 06:56:13;;;;;;;7.77;5.87;;;18.10;1.00;;;;;;5037989;28;20535;-70
2023/08/29 06:58:39;;;;;;;6.53;6.10;;;18.10;1.00;;;;;;5042961;28;20471;-69
2023/08/29 07:01:06;;;;;;;7.40;5.70;;;18.20;1.00;;;;;;5038897;28;20872;-72
2023/08/29 07:03:33;;;;;;;7.67;6.87;;;18.20;1.00;;;;;;5041365;28;21004;-71
2023/08/29 07:06:00;;;;;;;8.70;7.30;;;18.10;1.00;;;;;;5039511;28;20442;-78
2023/08/29 07:08:27;;;;;;;7.80;7.10;;;18.10;1.00;;;;;;5040469;28;20452;-77
2023/08/29 07:10:56;;;;;;;6.93;6.33;;;18.00;1.00;;;;;;5040901;28;20530;-74
2023/08/29 07:13:23;;;;;;;7.70;7.00;;;17.90;1.00;;;;;;5042226;28;20480;-77
2023/08/29 07:15:51;;;;;;;7.27;6.67;;;17.70;1.00;;;;;;5039657;28;20483;-78
2023/08/29 07:18:19;;;;;;;6.90;6.30;;;17.60;1.00;;;;;;5041924;28;20928;-76
2023/08/29 07:20:49;;;;;;;7.30;6.70;;;17.50;1.00;;;;;;5038768;28;21347;-76
2023/08/29 07:23:16;;;;;;;8.37;7.50;;;17.40;1.00;;;;;;5038865;28;21277;-76
2023/08/29 07:25:44;;;;;;;7.97;7.03;;;17.30;1.00;;;;;;5039029;28;20945;-77
2023/08/29 07:28:14;;;;;;;8.90;6.53;;;17.30;1.00;;;;;;5038127;28;20469;-77
2023/08/29 07:30:45;;;;;;;7.80;7.03;;;17.40;1.00;;;;;;5045592;28;20552;-75
2023/08/29 07:33:12;;;;;;;8.40;7.60;;;17.30;1.00;;;;;;5042100;28;20453;-77
2023/08/29 07:35:40;;;;;;;7.50;6.90;;;17.30;1.00;;;;;;5041531;28;20476;-78
2023/08/29 07:38:07;;;;;;;8.80;7.80;;;17.30;1.00;;;;;;5050305;28;20473;-80
2023/08/29 07:40:34;;;;;;;8.40;7.67;;;17.20;1.00;;;;;;5043185;28;20499;-78
2023/08/29 07:43:03;;;;;;;7.70;7.10;;;17.20;1.00;;;;;;5041101;28;20482;-78
2023/08/29 07:45:32;;;;;;;7.23;6.73;;;17.20;1.00;;;;;;5044238;28;20833;-79
2023/08/29 07:48:00;;;;;;;8.43;7.77;;;17.20;1.00;;;;;;5050049;28;20464;-79
2023/08/29 07:50:27;;;;;;;8.43;7.83;;;17.30;1.00;;;;;;5047608;28;20517;-79
2023/08/29 07:52:54;;;;;;;7.80;7.10;;;17.40;1.00;;;;;;5049846;28;20599;-81
2023/08/29 07:55:21;;;;;;;7.77;6.73;;;17.40;1.00;;;;;;5044239;28;20456;-81
2023/08/29 07:57:48;;;;;;;7.70;7.10;;;17.40;1.00;;;;;;5043270;28;20960;-82
2023/08/29 08:00:16;;;;;;;7.87;7.20;;;17.30;1.00;;;;;;5044822;28;20464;-80
2023/08/29 08:02:45;;;;;;;7.27;6.70;;;17.30;1.00;;;;;;5043274;28;20460;-78
2023/08/29 08:05:14;;;;;;;9.07;8.27;;;17.30;1.00;;;;;;5043900;28;20453;-77
2023/08/29 08:07:43;;;;;;;9.37;7.70;;;17.40;1.00;;;;;;5039369;28;20499;-78
2023/08/29 08:10:12;;;;;;;8.20;7.40;;;17.50;1.00;;;;;;5042706;28;20441;-78
2023/08/29 08:12:40;;;;;;;7.87;7.13;;;17.50;1.00;;;;;;5048473;28;20468;-78
2023/08/29 08:15:08;;;;;;;8.47;7.57;;;17.50;1.00;;;;;;5043414;28;20550;-79
2023/08/29 08:17:36;;;;;;;8.10;7.43;;;17.50;1.00;;;;;;5039941;28;20440;-77
2023/08/29 08:20:08;;;;;;;9.07;8.27;;;17.50;1.00;;;;;;5036661;28;20473;-77
2023/08/29 08:22:35;;;;;;;7.87;7.20;;;17.40;1.00;;;;;;5043844;28;20456;-79
2023/08/29 08:25:02;;;;;;;9.93;8.87;;;17.30;1.00;;;;;;5040085;28;20457;-80
2023/08/29 08:27:30;;;;;;;8.40;7.70;;;17.30;1.00;;;;;;5042897;28;21121;-83
2023/08/29 08:29:58;;;;;;;9.00;8.30;;;17.30;1.00;;;;;;5038357;28;20507;-81
2023/08/29 08:32:25;;;;;;;8.30;7.40;;;17.30;1.00;;;;;;5043972;28;20515;-86
2023/08/29 08:34:54;;;;;;;8.60;7.80;;;17.30;1.00;;;;;;5048747;28;20456;-85
2023/08/29 08:37:22;;;;;;;8.80;8.10;;;17.40;1.00;;;;;;5042697;28;20440;-82
2023/08/29 08:39:49;;;;;;;9.80;8.80;;;17.30;1.00;;;;;;5044776;28;20624;-81
2023/08/29 08:42:17;;;;;;;9.27;8.40;;;17.20;1.00;;;;;;5044838;28;21018;-85
2023/08/29 08:44:44;;;;;;;9.70;8.87;;;17.20;1.00;;;;;;5043436;28;21147;-80
2023/08/29 08:47:13;;;;;;;8.40;7.80;;;17.20;1.00;;;;;;5040164;28;21265;-80
2023/08/29 08:49:41;;;;;;;8.93;8.00;;;17.30;1.00;;;;;;5044532;28;20445;-82
2023/08/29 08:52:11;;;;;;;9.10;7.57;;;17.20;1.00;;;;;;5036353;28;20485;-83
2023/08/29 08:54:39;;;;;;;8.97;8.17;;;17.30;1.00;;;;;;5051610;28;20467;-80
2023/08/29 08:57:07;;;;;;;8.40;7.70;;;17.30;1.00;;;;;;5042172;28;20464;-80
2023/08/29 08:59:34;;;;;;;9.17;8.43;;;17.30;1.00;;;;;;5036850;28;21011;-79
2023/08/29 09:02:01;;;;;;;8.50;7.80;;;17.40;1.00;;;;;;5039569;28;20453;-82
2023/08/29 09:04:28;;;;;;;8.37;7.77;;;17.50;1.00;;;;;;5045800;28;20440;-80
2023/08/29 09:06:55;;;;;;;8.47;7.77;;;17.60;1.00;;;;;;5046100;28;20845;-85
2023/08/29 09:09:23;;;;;;;8.93;7.90;;;17.70;1.00;;;;;;5043638;28;20564;-81
2023/08/29 09:11:57;;;;;;;7.67;7.10;;;17.90;1.00;;;;;;5041093;28;20456;-83
2023/08/29 09:14:26;;;;;;;8.33;7.63;;;18.10;1.00;;;;;;5045092;28;20461;-81
2023/08/29 09:16:54;;;;;;;6.83;5.97;;;18.30;1.00;;;;;;5041180;28;21289;-78
2023/08/29 09:19:22;;;;;;;7.17;6.57;;;18.50;1.00;;;;;;5042562;28;20564;-79
2023/08/29 09:21:49;;;;;;;5.33;4.83;;;18.70;1.00;;;;;;5044124;28;21159;-80
2023/08/29 09:24:24;;;;;;;6.00;5.50;;;18.80;1.00;;;;;;5041807;28;20544;-78
2023/08/29 09:26:51;;;;;;;5.37;4.87;;;19.00;1.00;;;;;;5040559;28;20557;-79
2023/08/29 09:29:20;;;;;;;6.17;5.57;;;19.10;1.00;;;;;;5040631;28;20575;-81
2023/08/29 09:31:48;;;;;;;4.27;3.87;;;19.40;1.00;;;;;;5044868;28;20898;-80
2023/08/29 09:34:28;;;;;;;5.57;5.07;;;19.60;1.00;;;;;;5044817;28;20964;-79
2023/08/29 09:36:55;;;;;;;4.13;3.73;;;19.90;1.00;;;;;;5044863;28;20461;-79
2023/08/29 09:39:22;;;;;;;4.27;3.97;;;20.30;1.00;;;;;;5031683;28;20480;-77
2023/08/29 09:42:04;;;;;;;4.00;3.60;;;20.50;1.00;;;;;;5040603;28;20468;-79
2023/08/29 09:44:37;;;;;;;4.70;4.07;;;20.60;1.00;;;;;;5039673;28;20443;-79
2023/08/29 09:47:04;;;;;;;4.37;3.97;;;20.70;1.00;;;;;;5044715;28;20456;-80
2023/08/29 09:49:33;;;;;;;4.17;3.87;;;20.60;1.00;;;;;;5043094;28;20473;-80
2023/08/29 09:52:02;;;;;;;3.73;3.43;;;20.70;1.00;;;;;;5031922;28;20546;-77
2023/08/29 09:54:33;;;;;;;4.10;3.70;;;20.70;1.00;;;;;;5044417;28;21237;-80
2023/08/29 09:57:06;;;;;;;3.63;3.33;;;20.60;1.00;;;;;;5043096;28;20547;-80
2023/08/29 09:59:39;;;;;;;3.87;3.57;;;20.50;1.00;;;;;;5046522;28;20570;-79
2023/08/29 10:02:08;;;;;;;5.37;3.80;;;20.60;1.00;;;;;;5046899;28;20490;-78
2023/08/29 10:04:38;;;;;;;3.20;2.90;;;20.50;1.00;;;;;;5043957;28;20522;-80
2023/08/29 10:07:08;;;;;;;5.07;4.10;;;20.50;1.00;;;;;;5041991;28;20462;-79
2023/08/29 10:09:37;;;;;;;3.80;3.50;;;20.30;1.00;;;;;;5043598;28;20860;-79
2023/08/29 10:12:06;;;;;;;3.87;3.57;;;20.20;1.00;;;;;;5048477;28;20539;-80
2023/08/29 10:14:35;;;;;;;3.60;3.30;;;20.00;1.00;;;;;;5044295;28;20593;-78
2023/08/29 10:17:03;;;;;;;4.00;3.40;;;20.10;1.00;;;;;;5042765;28;20449;-81
2023/08/29 10:19:32;;;;;;;4.00;3.70;;;20.20;1.00;;;;;;5045391;28;20469;-80
2023/08/29 10:22:00;;;;;;;3.47;2.80;;;20.50;1.00;;;;;;5044200;28;20580;-81
2023/08/29 10:24:28;;;;;;;3.63;3.00;;;20.50;1.00;;;;;;5041392;28;20488;-76
2023/08/29 10:26:56;;;;;;;3.77;3.47;;;20.40;1.00;;;;;;5043824;28;20887;-76
2023/08/29 10:29:23;;;;;;;5.20;4.23;;;20.30;1.00;;;;;;5037538;28;20614;-76
2023/08/29 10:31:52;;;;;;;3.73;3.37;;;20.10;1.00;;;;;;5042102;28;20529;-76
2023/08/29 10:34:20;;;;;;;5.50;3.60;;;20.10;1.00;;;;;;5048336;28;20531;-75
2023/08/29 10:36:47;;;;;;;5.60;3.73;;;20.20;1.00;;;;;;5041338;28;20491;-76
2023/08/29 10:39:15;;;;;;;4.80;4.30;;;20.10;1.00;;;;;;5041470;28;20496;-75
2023/08/29 10:41:47;;;;;;;5.23;4.70;;;20.20;1.00;;;;;;5041233;28;20976;-78
2023/08/29 10:44:44;;;;;;;3.60;3.30;;;20.30;1.00;;;;;;5043994;28;20471;-75
2023/08/29 10:47:19;;;;;;;5.37;4.30;;;20.30;1.00;;;;;;4992232;28;20983;-75
2023/08/29 10:49:47;;;;;;;3.87;3.67;;;20.30;1.00;;;;;;5037618;28;20491;-74
2023/08/29 10:52:14;;;;;;;5.40;3.90;;;20.30;1.00;;;;;;5039965;28;20466;-76
2023/08/29 10:54:41;;;;;;;5.40;5.03;;;20.30;1.00;;;;;;5040063;28;20955;-75
2023/08/29 10:57:28;;;;;;;5.77;4.60;;;20.20;1.00;;;;;;5042715;28;20830;-75
2023/08/29 10:59:56;;;;;;;6.10;5.50;;;20.10;1.00;;;;;;5042195;28;20571;-73
2023/08/29 11:02:26;;;;;;;7.40;4.60;;;20.20;1.00;;;;;;5042158;28;20454;-75
2023/08/29 11:05:09;;;;;;;5.30;4.53;;;20.20;1.00;;;;;;5043345;28;20467;-74
2023/08/29 11:07:37;;;;;;;5.53;5.00;;;20.20;1.00;;;;;;5037500;28;20499;-75
2023/08/29 11:10:27;;;;;;;5.73;4.27;;;20.30;1.00;;;;;;5049429;28;20519;-76
2023/08/29 11:13:10;;;;;;;5.73;5.30;;;20.30;1.00;;;;;;5024106;28;20457;-74
2023/08/29 11:16:06;;;;;;;5.80;5.40;;;20.30;1.00;;;;;;5037040;28;20474;-73
2023/08/29 11:18:35;;;;;;;8.27;6.07;;;20.40;1.00;;;;;;5031437;28;20541;-74
2023/08/29 11:21:08;;;;;;;5.67;5.07;;;20.50;1.00;;;;;;5032447;28;20481;-76
2023/08/29 11:23:39;;;;;;;10.53;9.63;;;20.60;1.00;;;;;;5033160;28;20531;-75
2023/08/29 11:26:08;;;;;;;5.87;5.37;;;20.80;1.00;;;;;;5031042;28;20454;-76
2023/08/29 11:28:42;;;;;;;6.67;6.07;;;21.00;1.00;;;;;;5029196;28;20512;-76
2023/08/29 11:31:10;;;;;;;5.80;5.30;;;21.00;1.00;;;;;;5031287;28;20552;-75
2023/08/29 11:33:39;;;;;;;5.87;5.37;;;21.10;1.00;;;;;;5031570;28;20466;-75
2023/08/29 11:36:09;;;;;;;6.00;5.50;;;21.20;1.00;;;;;;5025081;28;20944;-76
2023/08/29 11:38:37;;;;;;;6.73;6.10;;;21.30;1.00;;;;;;5032982;28;20558;-75
2023/08/29 11:41:05;;;;;;;7.10;6.50;;;21.40;1.00;;;;;;5033572;28;20512;-75
2023/08/29 11:43:33;;;;;;;9.97;6.10;;;21.50;1.00;;;;;;5030000;28;20459;-75
2023/08/29 11:46:03;;;;;;;10.50;7.10;;;21.60;1.00;;;;;;5035560;28;20491;-77
2023/08/29 11:48:31;;;;;;;6.77;6.30;;;21.80;1.00;;;;;;5032964;28;21715;-76
2023/08/29 11:51:03;;;;;;;6.50;6.03;;;21.90;1.00;;;;;;5030903;28;20460;-77
2023/08/29 11:53:32;;;;;;;6.40;5.90;;;21.90;1.00;;;;;;5036500;28;20459;-77
2023/08/29 11:56:00;;;;;;;9.70;8.93;;;21.90;1.00;;;;;;5035501;28;20483;-78
2023/08/29 11:58:28;;;;;;;8.43;7.63;;;21.90;1.00;;;;;;5037856;28;20970;-76
2023/08/29 12:00:56;;;;;;;6.97;6.47;;;21.90;1.00;;;;;;5039513;28;20476;-77
2023/08/29 12:03:25;;;;;;;7.70;6.93;;;21.90;1.00;;;;;;5040224;28;21004;-75
2023/08/29 12:05:52;;;;;;;6.93;6.43;;;22.00;1.00;;;;;;5038323;28;20465;-75
2023/08/29 12:11:16;;;;;;;7.13;6.53;;;22.00;1.00;;;;;;5083568;27;20562;-77
2023/08/29 12:14:00;;;;;;;7.07;6.47;;;21.90;1.00;;;;;;5074902;27;20462;-77
2023/08/29 12:16:28;;;;;;;6.43;5.83;;;21.80;1.00;;;;;;5074201;28;20554;-77
2023/08/29 12:19:13;;;;;;;6.93;6.23;;;21.80;1.00;;;;;;5080224;27;21243;-75
2023/08/29 12:21:52;;;;;;;7.47;6.80;;;21.70;1.00;;;;;;5075161;28;20486;-76
2023/08/29 12:24:22;;;;;;;7.50;6.90;;;21.80;1.00;;;;;;5079802;28;20515;-74
2023/08/29 12:26:52;;;;;;;7.23;6.57;;;21.80;1.00;;;;;;5075291;28;20555;-76
2023/08/29 12:29:22;;;;;;;8.63;6.27;;;21.70;1.00;;;;;;5064143;27;20544;-77
2023/08/29 12:31:50;;;;;;;7.67;7.07;;;21.60;1.00;;;;;;5076510;28;20495;-76
2023/08/29 12:34:17;;;;;;;7.70;7.10;;;21.50;1.00;;;;;;5079299;27;20512;-78
2023/08/29 12:36:44;;;;;;;6.47;6.07;;;21.50;1.00;;;;;;5062206;27;20459;-77
2023/08/29 12:39:14;;;;;;;8.20;7.60;;;21.60;1.00;;;;;;5056745;28;20494;-82
2023/08/29 12:41:42;;;;;;;7.70;7.20;;;21.70;1.00;;;;;;5053646;28;20611;-83
2023/08/29 12:44:13;;;;;;;6.53;6.03;;;21.60;1.00;;;;;;5067705;27;20476;-79
2023/08/29 12:46:42;;;;;;;9.40;6.60;;;21.40;1.00;;;;;;5058191;28;20532;-79
2023/08/29 12:49:11;;;;;;;6.50;6.10;;;21.30;1.00;;;;;;5047922;27;20458;-76
2023/08/29 12:51:41;;;;;;;8.10;7.40;;;21.20;1.00;;;;;;5050260;28;20597;-78
2023/08/29 12:54:08;;;;;;;7.47;6.87;;;21.20;1.00;;;;;;5044639;28;20458;-76
2023/08/29 12:56:36;;;;;;;7.53;6.97;;;21.40;1.00;;;;;;5034025;28;21350;-76
2023/08/29 12:59:08;;;;;;;9.00;8.20;;;21.50;1.00;;;;;;5047780;28;20618;-79
2023/08/29 13:01:43;;;;;;;7.40;7.00;;;21.60;1.00;;;;;;5065191;27;20582;-79
2023/08/29 13:04:11;;;;;;;6.50;6.00;;;21.60;1.00;;;;;;5071963;27;20971;-76
2023/08/29 13:06:38;;;;;;;9.07;8.30;;;21.40;1.00;;;;;;5062634;27;20498;-79
2023/08/29 13:09:07;;;;;;;9.73;8.83;;;21.30;1.00;;;;;;5064827;27;20467;-81